sensor_id;sensor_type;location;lat;lon;timestamp;pressure;altitude;pressure_sealevel;temperature;humidity
50394;BME280;36308;46.312;25.288;2023-03-23T00:01:29;96150.75;;;3.16;68.02
50394;BME280;36308;46.312;25.288;2023-03-23T00:03:57;96155.47;;;3.14;68.06
50394;BME280;36308;46.312;25.288;2023-03-23T00:06:25;96156.66;;;3.11;67.63
50394;BME280;36308;46.312;25.288;2023-03-23T00:08:51;96145.25;;;3.04;68.33
50394;BME280;36308;46.312;25.288;2023-03-23T00:11:27;96163.41;;;3.07;68.29
50394;BME280;36308;46.312;25.288;2023-03-23T00:13:55;96159.34;;;3.04;67.73
50394;BME280;36308;46.312;25.288;2023-03-23T00:16:24;96154.47;;;3.01;68.31
50394;BME280;36308;46.312;25.288;2023-03-23T00:19:08;96158.13;;;3.00;68.63
50394;BME280;36308;46.312;25.288;2023-03-23T00:21:36;96154.03;;;2.98;67.94
50394;BME280;36308;46.312;25.288;2023-03-23T00:24:13;96152.44;;;2.97;67.89
50394;BME280;36308;46.312;25.288;2023-03-23T00:26:43;96142.19;;;2.94;68.29
50394;BME280;36308;46.312;25.288;2023-03-23T00:29:15;96139.75;;;2.92;67.94
50394;BME280;36308;46.312;25.288;2023-03-23T00:31:42;96143.63;;;2.90;68.08
50394;BME280;36308;46.312;25.288;2023-03-23T00:34:16;96145.69;;;2.88;68.65
50394;BME280;36308;46.312;25.288;2023-03-23T00:36:52;96139.75;;;2.86;68.13
50394;BME280;36308;46.312;25.288;2023-03-23T00:39:23;96141.81;;;2.83;68.10
50394;BME280;36308;46.312;25.288;2023-03-23T00:41:51;96135.88;;;2.81;67.97
50394;BME280;36308;46.312;25.288;2023-03-23T00:44:26;96135.28;;;2.79;68.49
50394;BME280;36308;46.312;25.288;2023-03-23T00:46:54;96132.00;;;2.77;68.14
50394;BME280;36308;46.312;25.288;2023-03-23T00:49:23;96133.03;;;2.76;68.11
50394;BME280;36308;46.312;25.288;2023-03-23T00:51:56;96125.47;;;2.73;68.80
50394;BME280;36308;46.312;25.288;2023-03-23T00:54:24;96125.66;;;2.72;67.93
50394;BME280;36308;46.312;25.288;2023-03-23T00:56:51;96132.22;;;2.69;67.92
50394;BME280;36308;46.312;25.288;2023-03-23T00:59:16;96121.78;;;2.68;68.20
50394;BME280;36308;46.312;25.288;2023-03-23T01:01:42;96119.75;;;2.63;67.82
50394;BME280;36308;46.312;25.288;2023-03-23T01:04:08;96119.16;;;2.61;68.56
50394;BME280;36308;46.312;25.288;2023-03-23T01:06:36;96114.88;;;2.60;67.81
50394;BME280;36308;46.312;25.288;2023-03-23T01:09:05;96126.72;;;2.57;67.91
50394;BME280;36308;46.312;25.288;2023-03-23T01:11:31;96124.88;;;2.51;68.11
50394;BME280;36308;46.312;25.288;2023-03-23T01:14:16;96126.69;;;2.51;67.97
50394;BME280;36308;46.312;25.288;2023-03-23T01:16:42;96128.75;;;2.49;68.80
50394;BME280;36308;46.312;25.288;2023-03-23T01:19:07;96126.50;;;2.46;68.54
50394;BME280;36308;46.312;25.288;2023-03-23T01:21:33;96124.06;;;2.44;68.46
50394;BME280;36308;46.312;25.288;2023-03-23T01:23:59;96128.75;;;2.42;68.25
50394;BME280;36308;46.312;25.288;2023-03-23T01:26:27;96124.69;;;2.39;68.43
50394;BME280;36308;46.312;25.288;2023-03-23T01:28:53;96129.16;;;2.39;68.98
50394;BME280;36308;46.312;25.288;2023-03-23T01:31:21;96121.81;;;2.34;68.20
50394;BME280;36308;46.312;25.288;2023-03-23T01:33:48;96123.63;;;2.34;69.01
50394;BME280;36308;46.312;25.288;2023-03-23T01:36:26;96119.56;;;2.31;68.35
50394;BME280;36308;46.312;25.288;2023-03-23T01:38:54;96124.25;;;2.29;68.44
50394;BME280;36308;46.312;25.288;2023-03-23T01:41:21;96119.34;;;2.26;69.05
50394;BME280;36308;46.312;25.288;2023-03-23T01:44:06;96126.69;;;2.24;68.87
50394;BME280;36308;46.312;25.288;2023-03-23T01:46:34;96122.59;;;2.21;68.94
50394;BME280;36308;46.312;25.288;2023-03-23T01:49:15;96118.34;;;2.20;69.35
50394;BME280;36308;46.312;25.288;2023-03-23T01:51:51;96114.03;;;2.19;69.12
50394;BME280;36308;46.312;25.288;2023-03-23T01:54:18;96116.91;;;2.18;68.71
50394;BME280;36308;46.312;25.288;2023-03-23T01:56:55;96116.31;;;2.16;68.63
50394;BME280;36308;46.312;25.288;2023-03-23T01:59:23;96115.69;;;2.14;68.74
50394;BME280;36308;46.312;25.288;2023-03-23T02:02:09;96126.69;;;2.11;69.53
50394;BME280;36308;46.312;25.288;2023-03-23T02:04:36;96123.22;;;2.10;68.57
50394;BME280;36308;46.312;25.288;2023-03-23T02:07:02;96123.41;;;2.09;68.92
50394;BME280;36308;46.312;25.288;2023-03-23T02:09:29;96122.81;;;2.07;69.08
50394;BME280;36308;46.312;25.288;2023-03-23T02:11:55;96126.69;;;2.04;68.79
50394;BME280;36308;46.312;25.288;2023-03-23T02:14:23;96122.59;;;2.01;69.42
50394;BME280;36308;46.312;25.288;2023-03-23T02:17:09;96129.94;;;1.99;68.78
50394;BME280;36308;46.312;25.288;2023-03-23T02:19:48;96123.81;;;1.99;69.47
50394;BME280;36308;46.312;25.288;2023-03-23T02:28:19;96120.13;;;1.93;69.44
50394;BME280;36308;46.312;25.288;2023-03-23T02:38:47;96125.63;;;1.85;69.22
50394;BME280;36308;46.312;25.288;2023-03-23T02:41:19;96119.47;;;1.85;69.43
50394;BME280;36308;46.312;25.288;2023-03-23T02:43:47;96123.34;;;1.82;69.28
50394;BME280;36308;46.312;25.288;2023-03-23T02:46:15;96128.03;;;1.80;69.11
50394;BME280;36308;46.312;25.288;2023-03-23T02:48:43;96122.94;;;1.78;69.18
50394;BME280;36308;46.312;25.288;2023-03-23T02:51:10;96132.72;;;1.78;69.18
50394;BME280;36308;46.312;25.288;2023-03-23T02:53:40;96129.88;;;1.73;69.73
50394;BME280;36308;46.312;25.288;2023-03-23T02:56:08;96129.88;;;1.73;69.45
50394;BME280;36308;46.312;25.288;2023-03-23T02:58:34;96132.91;;;1.70;69.67
50394;BME280;36308;46.312;25.288;2023-03-23T03:03:54;96127.81;;;1.68;69.47
50394;BME280;36308;46.312;25.288;2023-03-23T03:12:13;96129.44;;;1.63;69.36
50394;BME280;36308;46.312;25.288;2023-03-23T03:14:59;96130.66;;;1.60;69.72
50394;BME280;36308;46.312;25.288;2023-03-23T03:17:31;96125.94;;;1.55;69.28
50394;BME280;36308;46.312;25.288;2023-03-23T03:20:00;96132.25;;;1.54;69.94
50394;BME280;36308;46.312;25.288;2023-03-23T03:22:37;96128.19;;;1.52;69.37
50394;BME280;36308;46.312;25.288;2023-03-23T03:25:06;96131.00;;;1.50;69.46
50394;BME280;36308;46.312;25.288;2023-03-23T03:27:31;96138.34;;;1.48;69.16
50394;BME280;36308;46.312;25.288;2023-03-23T03:29:59;96133.44;;;1.45;69.43
50394;BME280;36308;46.312;25.288;2023-03-23T03:32:36;96135.44;;;1.43;69.57
50394;BME280;36308;46.312;25.288;2023-03-23T03:35:04;96134.66;;;1.42;69.55
50394;BME280;36308;46.312;25.288;2023-03-23T03:37:38;96138.50;;;1.40;69.61
50394;BME280;36308;46.312;25.288;2023-03-23T03:40:10;96150.94;;;1.39;69.38
50394;BME280;36308;46.312;25.288;2023-03-23T03:42:41;96145.84;;;1.38;70.19
50394;BME280;36308;46.312;25.288;2023-03-23T03:45:13;96150.50;;;1.36;69.93
50394;BME280;36308;46.312;25.288;2023-03-23T03:47:39;96145.22;;;1.36;70.12
50394;BME280;36308;46.312;25.288;2023-03-23T03:50:05;96149.28;;;1.32;69.75
50394;BME280;36308;46.312;25.288;2023-03-23T03:52:32;96152.72;;;1.32;69.91
50394;BME280;36308;46.312;25.288;2023-03-23T03:54:57;96151.94;;;1.32;70.03
50394;BME280;36308;46.312;25.288;2023-03-23T03:57:23;96148.84;;;1.28;69.70
50394;BME280;36308;46.312;25.288;2023-03-23T03:59:49;96151.72;;;1.27;69.77
50394;BME280;36308;46.312;25.288;2023-03-23T04:02:16;96153.50;;;1.26;69.76
50394;BME280;36308;46.312;25.288;2023-03-23T04:04:46;96152.09;;;1.24;69.76
50394;BME280;36308;46.312;25.288;2023-03-23T04:07:12;96153.31;;;1.21;69.81
50394;BME280;36308;46.312;25.288;2023-03-23T04:09:40;96156.13;;;1.19;69.57
50394;BME280;36308;46.312;25.288;2023-03-23T04:12:06;96154.50;;;1.18;70.31
50394;BME280;36308;46.312;25.288;2023-03-23T04:14:32;96149.59;;;1.15;70.13
50394;BME280;36308;46.312;25.288;2023-03-23T04:16:57;96152.25;;;1.15;69.81
50394;BME280;36308;46.312;25.288;2023-03-23T04:19:24;96163.66;;;1.16;70.56
50394;BME280;36308;46.312;25.288;2023-03-23T04:21:50;96164.88;;;1.13;70.62
50394;BME280;36308;46.312;25.288;2023-03-23T04:24:17;96169.16;;;1.14;70.24
50394;BME280;36308;46.312;25.288;2023-03-23T04:26:46;96165.88;;;1.12;70.75
50394;BME280;36308;46.312;25.288;2023-03-23T04:29:12;96175.63;;;1.12;70.14
50394;BME280;36308;46.312;25.288;2023-03-23T04:31:38;96173.84;;;1.12;70.47
50394;BME280;36308;46.312;25.288;2023-03-23T04:34:05;96167.69;;;1.12;70.27
50394;BME280;36308;46.312;25.288;2023-03-23T04:36:30;96177.66;;;1.10;70.18
50394;BME280;36308;46.312;25.288;2023-03-23T04:38:59;96166.25;;;1.09;70.75
50394;BME280;36308;46.312;25.288;2023-03-23T04:41:25;96166.25;;;1.09;70.88
50394;BME280;36308;46.312;25.288;2023-03-23T04:43:51;96175.22;;;1.08;70.29
50394;BME280;36308;46.312;25.288;2023-03-23T04:46:18;96176.03;;;1.09;70.29
50394;BME280;36308;46.312;25.288;2023-03-23T04:48:47;96180.53;;;1.08;70.29
50394;BME280;36308;46.312;25.288;2023-03-23T04:51:12;96172.78;;;1.07;70.24
50394;BME280;36308;46.312;25.288;2023-03-23T04:53:38;96172.16;;;1.05;70.67
50394;BME280;36308;46.312;25.288;2023-03-23T04:56:04;96177.25;;;1.06;71.20
50394;BME280;36308;46.312;25.288;2023-03-23T04:58:30;96188.66;;;1.07;70.72
50394;BME280;36308;46.312;25.288;2023-03-23T05:01:00;96182.56;;;1.06;70.53
50394;BME280;36308;46.312;25.288;2023-03-23T05:03:25;96178.88;;;1.07;71.30
50394;BME280;36308;46.312;25.288;2023-03-23T05:05:52;96196.41;;;1.08;70.78
50394;BME280;36308;46.312;25.288;2023-03-23T05:08:22;96184.16;;;1.07;71.09
50394;BME280;36308;46.312;25.288;2023-03-23T05:10:53;96188.06;;;1.11;71.65
50394;BME280;36308;46.312;25.288;2023-03-23T05:13:19;96185.41;;;1.11;70.93
50394;BME280;36308;46.312;25.288;2023-03-23T05:15:45;96191.97;;;1.15;71.40
50394;BME280;36308;46.312;25.288;2023-03-23T05:18:11;96205.84;;;1.17;71.46
50394;BME280;36308;46.312;25.288;2023-03-23T05:20:36;96205.66;;;1.19;70.99
50394;BME280;36308;46.312;25.288;2023-03-23T05:23:03;96209.72;;;1.21;71.54
50394;BME280;36308;46.312;25.288;2023-03-23T05:25:28;96205.88;;;1.24;71.49
50394;BME280;36308;46.312;25.288;2023-03-23T05:27:53;96201.00;;;1.28;71.63
50394;BME280;36308;46.312;25.288;2023-03-23T05:30:20;96203.28;;;1.31;72.29
50394;BME280;36308;46.312;25.288;2023-03-23T05:32:47;96197.56;;;1.34;72.32
50394;BME280;36308;46.312;25.288;2023-03-23T05:35:16;96203.31;;;1.37;72.31
50394;BME280;36308;46.312;25.288;2023-03-23T05:37:42;96204.75;;;1.40;72.31
50394;BME280;36308;46.312;25.288;2023-03-23T05:40:09;96203.16;;;1.46;72.20
50394;BME280;36308;46.312;25.288;2023-03-23T05:42:37;96210.50;;;1.50;72.62
50394;BME280;36308;46.312;25.288;2023-03-23T05:45:04;96210.72;;;1.55;72.59
50394;BME280;36308;46.312;25.288;2023-03-23T05:47:30;96215.25;;;1.61;72.05
50394;BME280;36308;46.312;25.288;2023-03-23T05:49:56;96212.84;;;1.67;72.34
50394;BME280;36308;46.312;25.288;2023-03-23T05:52:22;96214.69;;;1.73;72.58
50394;BME280;36308;46.312;25.288;2023-03-23T05:54:49;96207.75;;;1.78;73.01
50394;BME280;36308;46.312;25.288;2023-03-23T05:57:16;96208.81;;;1.84;72.60
50394;BME280;36308;46.312;25.288;2023-03-23T05:59:42;96208.03;;;1.90;72.40
50394;BME280;36308;46.312;25.288;2023-03-23T06:02:07;96215.19;;;1.96;72.68
50394;BME280;36308;46.312;25.288;2023-03-23T06:04:33;96217.03;;;2.02;72.70
50394;BME280;36308;46.312;25.288;2023-03-23T06:07:01;96209.09;;;2.09;73.04
50394;BME280;36308;46.312;25.288;2023-03-23T06:09:27;96213.41;;;2.17;73.13
50394;BME280;36308;46.312;25.288;2023-03-23T06:11:53;96212.63;;;2.23;73.30
50394;BME280;36308;46.312;25.288;2023-03-23T06:14:19;96214.03;;;2.32;72.96
50394;BME280;36308;46.312;25.288;2023-03-23T06:16:45;96213.25;;;2.38;73.05
50394;BME280;36308;46.312;25.288;2023-03-23T06:19:10;96214.69;;;2.48;72.70
50394;BME280;36308;46.312;25.288;2023-03-23T06:21:37;96220.63;;;2.56;73.71
50394;BME280;36308;46.312;25.288;2023-03-23T06:24:03;96210.66;;;2.78;74.53
50394;BME280;36308;46.312;25.288;2023-03-23T06:26:39;96203.06;;;3.09;75.00
50394;BME280;36308;46.312;25.288;2023-03-23T06:29:07;96221.78;;;3.54;74.19
50394;BME280;36308;46.312;25.288;2023-03-23T06:31:41;96211.13;;;3.74;73.46
50394;BME280;36308;46.312;25.288;2023-03-23T06:34:08;96229.03;;;3.92;72.51
50394;BME280;36308;46.312;25.288;2023-03-23T06:36:35;96230.22;;;4.02;72.20
50394;BME280;36308;46.312;25.288;2023-03-23T06:39:02;96214.25;;;4.02;71.70
50394;BME280;36308;46.312;25.288;2023-03-23T06:41:30;96229.13;;;4.17;71.94
50394;BME280;36308;46.312;25.288;2023-03-23T06:43:55;96223.56;;;4.25;71.38
50394;BME280;36308;46.312;25.288;2023-03-23T06:46:21;96225.16;;;4.33;72.13
50394;BME280;36308;46.312;25.288;2023-03-23T06:48:46;96220.84;;;4.38;71.93
50394;BME280;36308;46.312;25.288;2023-03-23T06:51:15;96227.13;;;4.51;71.31
50394;BME280;36308;46.312;25.288;2023-03-23T06:53:40;96227.22;;;4.62;71.73
50394;BME280;36308;46.312;25.288;2023-03-23T06:56:06;96228.16;;;4.75;72.00
50394;BME280;36308;46.312;25.288;2023-03-23T06:58:32;96228.09;;;4.88;71.94
50394;BME280;36308;46.312;25.288;2023-03-23T07:00:57;96225.50;;;5.00;71.53
50394;BME280;36308;46.312;25.288;2023-03-23T07:03:23;96228.69;;;5.15;71.27
50394;BME280;36308;46.312;25.288;2023-03-23T07:05:49;96228.56;;;5.29;71.13
50394;BME280;36308;46.312;25.288;2023-03-23T07:08:15;96231.72;;;5.44;70.72
50394;BME280;36308;46.312;25.288;2023-03-23T07:10:41;96236.31;;;5.55;70.68
50394;BME280;36308;46.312;25.288;2023-03-23T07:13:06;96231.88;;;5.67;70.50
50394;BME280;36308;46.312;25.288;2023-03-23T07:15:32;96229.03;;;5.81;70.07
50394;BME280;36308;46.312;25.288;2023-03-23T07:17:58;96229.66;;;6.01;70.05
50394;BME280;36308;46.312;25.288;2023-03-23T07:20:24;96232.31;;;6.20;69.90
50394;BME280;36308;46.312;25.288;2023-03-23T07:22:49;96233.25;;;6.44;69.56
50394;BME280;36308;46.312;25.288;2023-03-23T07:25:17;96219.00;;;6.62;69.26
50394;BME280;36308;46.312;25.288;2023-03-23T07:27:44;96235.38;;;6.96;68.52
50394;BME280;36308;46.312;25.288;2023-03-23T07:30:11;96232.72;;;7.19;68.53
50394;BME280;36308;46.312;25.288;2023-03-23T07:32:38;96229.03;;;7.44;68.60
50394;BME280;36308;46.312;25.288;2023-03-23T07:35:04;96239.25;;;7.71;68.07
50394;BME280;36308;46.312;25.288;2023-03-23T07:37:29;96243.28;;;7.97;67.31
50394;BME280;36308;46.312;25.288;2023-03-23T07:39:57;96236.00;;;8.21;66.60
50394;BME280;36308;46.312;25.288;2023-03-23T07:42:22;96227.09;;;8.44;65.44
50394;BME280;36308;46.312;25.288;2023-03-23T07:44:48;96233.66;;;8.65;65.53
50394;BME280;36308;46.312;25.288;2023-03-23T07:47:14;96237.63;;;8.91;64.99
50394;BME280;36308;46.312;25.288;2023-03-23T07:49:40;96237.47;;;9.15;64.42
50394;BME280;36308;46.312;25.288;2023-03-23T07:52:05;96238.13;;;9.39;63.36
50394;BME280;36308;46.312;25.288;2023-03-23T07:54:31;96230.94;;;9.61;62.90
50394;BME280;36308;46.312;25.288;2023-03-23T07:56:56;96230.72;;;9.85;62.91
50394;BME280;36308;46.312;25.288;2023-03-23T07:59:22;96230.75;;;10.07;61.34
50394;BME280;36308;46.312;25.288;2023-03-23T08:01:48;96225.66;;;10.27;61.02
50394;BME280;36308;46.312;25.288;2023-03-23T08:04:13;96226.16;;;10.46;60.82
50394;BME280;36308;46.312;25.288;2023-03-23T08:06:40;96223.13;;;10.65;59.42
50394;BME280;36308;46.312;25.288;2023-03-23T08:09:07;96220.94;;;10.89;59.12
50394;BME280;36308;46.312;25.288;2023-03-23T08:11:35;96223.00;;;11.09;58.86
50394;BME280;36308;46.312;25.288;2023-03-23T08:14:01;96219.69;;;11.29;58.01
50394;BME280;36308;46.312;25.288;2023-03-23T08:16:28;96209.31;;;11.48;57.51
50394;BME280;36308;46.312;25.288;2023-03-23T08:18:53;96214.00;;;11.68;57.30
50394;BME280;36308;46.312;25.288;2023-03-23T08:21:19;96212.22;;;11.84;56.68
50394;BME280;36308;46.312;25.288;2023-03-23T08:23:46;96209.66;;;12.09;56.21
50394;BME280;36308;46.312;25.288;2023-03-23T08:26:11;96216.50;;;12.27;55.96
50394;BME280;36308;46.312;25.288;2023-03-23T08:28:37;96215.47;;;12.49;55.48
50394;BME280;36308;46.312;25.288;2023-03-23T08:31:07;96216.34;;;12.65;54.63
50394;BME280;36308;46.312;25.288;2023-03-23T08:33:33;96211.25;;;12.84;54.09
50394;BME280;36308;46.312;25.288;2023-03-23T08:36:00;96208.31;;;13.01;53.81
50394;BME280;36308;46.312;25.288;2023-03-23T08:38:26;96212.66;;;13.22;52.97
50394;BME280;36308;46.312;25.288;2023-03-23T08:40:58;96212.13;;;13.46;52.35
50394;BME280;36308;46.312;25.288;2023-03-23T08:43:24;96213.16;;;13.65;51.86
50394;BME280;36308;46.312;25.288;2023-03-23T08:45:50;96218.81;;;13.89;50.96
50394;BME280;36308;46.312;25.288;2023-03-23T08:48:16;96219.56;;;14.10;50.42
50394;BME280;36308;46.312;25.288;2023-03-23T08:50:43;96195.72;;;14.28;50.08
50394;BME280;36308;46.312;25.288;2023-03-23T08:53:09;96204.25;;;14.50;49.70
50394;BME280;36308;46.312;25.288;2023-03-23T08:55:35;96205.53;;;14.73;48.82
50394;BME280;36308;46.312;25.288;2023-03-23T08:58:01;96206.19;;;14.94;48.65
50394;BME280;36308;46.312;25.288;2023-03-23T09:00:26;96206.06;;;15.15;48.02
50394;BME280;36308;46.312;25.288;2023-03-23T09:02:53;96202.09;;;15.36;47.65
50394;BME280;36308;46.312;25.288;2023-03-23T09:05:22;96198.09;;;15.58;47.54
50394;BME280;36308;46.312;25.288;2023-03-23T09:07:52;96180.63;;;15.74;46.74
50394;BME280;36308;46.312;25.288;2023-03-23T09:10:18;96196.13;;;15.98;45.53
50394;BME280;36308;46.312;25.288;2023-03-23T09:12:45;96193.22;;;16.13;45.58
50394;BME280;36308;46.312;25.288;2023-03-23T09:15:17;96192.47;;;16.32;45.20
50394;BME280;36308;46.312;25.288;2023-03-23T09:17:45;96193.28;;;16.51;44.52
50394;BME280;36308;46.312;25.288;2023-03-23T09:20:12;96191.97;;;16.68;43.81
50394;BME280;36308;46.312;25.288;2023-03-23T09:22:40;96193.41;;;16.84;44.01
50394;BME280;36308;46.312;25.288;2023-03-23T09:25:07;96189.16;;;16.97;42.47
50394;BME280;36308;46.312;25.288;2023-03-23T09:27:34;96183.78;;;17.11;43.00
50394;BME280;36308;46.312;25.288;2023-03-23T09:30:03;96189.47;;;17.28;43.04
50394;BME280;36308;46.312;25.288;2023-03-23T09:32:34;96191.97;;;17.44;42.43
50394;BME280;36308;46.312;25.288;2023-03-23T09:35:01;96190.16;;;17.53;41.85
50394;BME280;36308;46.312;25.288;2023-03-23T09:37:27;96189.41;;;17.66;41.46
50394;BME280;36308;46.312;25.288;2023-03-23T09:39:53;96192.63;;;17.82;41.41
50394;BME280;36308;46.312;25.288;2023-03-23T09:47:44;96190.78;;;18.24;40.17
50394;BME280;36308;46.312;25.288;2023-03-23T09:50:26;96184.66;;;18.32;39.77
50394;BME280;36308;46.312;25.288;2023-03-23T09:53:00;96185.41;;;18.47;39.71
50394;BME280;36308;46.312;25.288;2023-03-23T09:55:28;96186.81;;;18.58;39.61
50394;BME280;36308;46.312;25.288;2023-03-23T10:00:35;96172.50;;;18.80;38.62
50394;BME280;36308;46.312;25.288;2023-03-23T10:03:06;96175.97;;;18.94;38.69
50394;BME280;36308;46.312;25.288;2023-03-23T10:05:50;96175.63;;;19.10;38.07
50394;BME280;36308;46.312;25.288;2023-03-23T10:08:23;96175.25;;;19.25;38.28
50394;BME280;36308;46.312;25.288;2023-03-23T10:11:21;96178.09;;;19.43;38.32
50394;BME280;36308;46.312;25.288;2023-03-23T10:16:29;96177.44;;;19.68;37.11
50394;BME280;36308;46.312;25.288;2023-03-23T10:21:47;96167.97;;;19.88;36.81
50394;BME280;36308;46.312;25.288;2023-03-23T10:24:20;96173.78;;;20.04;37.10
50394;BME280;36308;46.312;25.288;2023-03-23T10:29:35;96169.03;;;20.27;35.42
50394;BME280;36308;46.312;25.288;2023-03-23T10:32:09;96172.81;;;20.40;35.33
50394;BME280;36308;46.312;25.288;2023-03-23T10:40:01;96160.34;;;20.74;34.68
50394;BME280;36308;46.312;25.288;2023-03-23T10:42:33;96160.22;;;20.88;34.64
50394;BME280;36308;46.312;25.288;2023-03-23T10:45:13;96154.44;;;20.98;33.88
50394;BME280;36308;46.312;25.288;2023-03-23T10:47:45;96155.72;;;21.09;34.36
50394;BME280;36308;46.312;25.288;2023-03-23T10:50:15;96150.06;;;21.23;33.77
50394;BME280;36308;46.312;25.288;2023-03-23T10:52:43;96153.59;;;21.32;33.59
50394;BME280;36308;46.312;25.288;2023-03-23T10:55:13;96155.03;;;21.38;33.87
50394;BME280;36308;46.312;25.288;2023-03-23T10:57:42;96152.00;;;21.49;34.42
50394;BME280;36308;46.312;25.288;2023-03-23T11:00:19;96141.50;;;21.59;34.22
50394;BME280;36308;46.312;25.288;2023-03-23T11:05:27;96139.81;;;21.85;34.63
50394;BME280;36308;46.312;25.288;2023-03-23T11:07:59;96136.53;;;22.00;34.35
50394;BME280;36308;46.312;25.288;2023-03-23T11:12:58;96129.84;;;22.18;33.44
50394;BME280;36308;46.312;25.288;2023-03-23T11:15:28;96122.88;;;22.30;33.20
50394;BME280;36308;46.312;25.288;2023-03-23T11:18:05;96133.63;;;22.35;32.95
50394;BME280;36308;46.312;25.288;2023-03-23T11:20:40;96119.47;;;22.33;32.83
50394;BME280;36308;46.312;25.288;2023-03-23T11:23:28;96119.22;;;22.26;32.84
50394;BME280;36308;46.312;25.288;2023-03-23T11:26:14;96121.94;;;22.26;33.30
50394;BME280;36308;46.312;25.288;2023-03-23T11:28:51;96125.16;;;22.28;33.40
50394;BME280;36308;46.312;25.288;2023-03-23T11:31:22;96117.88;;;22.32;32.91
50394;BME280;36308;46.312;25.288;2023-03-23T11:34:01;96110.13;;;22.34;33.33
50394;BME280;36308;46.312;25.288;2023-03-23T11:36:35;96113.34;;;22.36;33.17
50394;BME280;36308;46.312;25.288;2023-03-23T11:39:02;96110.81;;;22.31;33.20
50394;BME280;36308;46.312;25.288;2023-03-23T11:41:35;96108.91;;;22.23;33.01
50394;BME280;36308;46.312;25.288;2023-03-23T11:44:09;96103.13;;;22.15;33.04
50394;BME280;36308;46.312;25.288;2023-03-23T11:49:26;96101.22;;;22.07;33.39
50394;BME280;36308;46.312;25.288;2023-03-23T11:52:02;96091.22;;;22.11;33.12
50394;BME280;36308;46.312;25.288;2023-03-23T11:54:34;96088.16;;;22.13;32.85
50394;BME280;36308;46.312;25.288;2023-03-23T11:57:07;96091.91;;;22.08;32.95
50394;BME280;36308;46.312;25.288;2023-03-23T11:59:35;96082.28;;;22.02;33.20
50394;BME280;36308;46.312;25.288;2023-03-23T12:05:20;96084.84;;;21.98;33.68
50394;BME280;36308;46.312;25.288;2023-03-23T12:16:53;96058.78;;;22.22;33.20
50394;BME280;36308;46.312;25.288;2023-03-23T12:19:47;96053.75;;;22.33;32.68
50394;BME280;36308;46.312;25.288;2023-03-23T12:33:22;96053.19;;;22.18;32.19
50394;BME280;36308;46.312;25.288;2023-03-23T12:36:36;96046.00;;;22.35;32.17
50394;BME280;36308;46.312;25.288;2023-03-23T12:44:52;96033.00;;;22.86;31.08
50394;BME280;36308;46.312;25.288;2023-03-23T12:49:58;96028.34;;;23.08;30.46
50394;BME280;36308;46.312;25.288;2023-03-23T12:55:39;96029.06;;;23.29;29.75
50394;BME280;36308;46.312;25.288;2023-03-23T12:58:16;96025.41;;;23.37;29.51
50394;BME280;36308;46.312;25.288;2023-03-23T13:03:31;96021.66;;;23.42;28.70
50394;BME280;36308;46.312;25.288;2023-03-23T13:06:18;96025.66;;;23.45;27.87
50394;BME280;36308;46.312;25.288;2023-03-23T13:08:55;96009.75;;;23.38;26.56
50394;BME280;36308;46.312;25.288;2023-03-23T13:11:35;96011.13;;;23.32;26.58
50394;BME280;36308;46.312;25.288;2023-03-23T13:14:32;96006.19;;;23.25;26.54
50394;BME280;36308;46.312;25.288;2023-03-23T13:24:55;95992.50;;;22.92;26.27
50394;BME280;36308;46.312;25.288;2023-03-23T13:27:25;95987.09;;;22.83;26.33
50394;BME280;36308;46.312;25.288;2023-03-23T13:29:54;95977.91;;;22.67;26.46
50394;BME280;36308;46.312;25.288;2023-03-23T13:32:36;95981.78;;;22.66;27.62
50394;BME280;36308;46.312;25.288;2023-03-23T13:35:04;95979.50;;;22.68;27.62
50394;BME280;36308;46.312;25.288;2023-03-23T13:37:32;95989.78;;;22.71;27.56
50394;BME280;36308;46.312;25.288;2023-03-23T13:40:14;95979.31;;;22.73;26.76
50394;BME280;36308;46.312;25.288;2023-03-23T13:43:10;95983.84;;;22.69;26.62
50394;BME280;36308;46.312;25.288;2023-03-23T13:45:47;95986.47;;;22.65;26.36
50394;BME280;36308;46.312;25.288;2023-03-23T13:51:00;95971.78;;;22.49;26.43
50394;BME280;36308;46.312;25.288;2023-03-23T13:53:31;95970.25;;;22.39;26.49
50394;BME280;36308;46.312;25.288;2023-03-23T13:56:35;95963.38;;;22.33;26.34
50394;BME280;36308;46.312;25.288;2023-03-23T13:59:15;95962.47;;;22.29;26.81
50394;BME280;36308;46.312;25.288;2023-03-23T14:01:41;95956.50;;;22.27;26.51
50394;BME280;36308;46.312;25.288;2023-03-23T14:04:15;95955.56;;;22.23;26.45
50394;BME280;36308;46.312;25.288;2023-03-23T14:06:44;95962.84;;;22.18;25.91
50394;BME280;36308;46.312;25.288;2023-03-23T14:09:19;95950.66;;;22.07;26.09
50394;BME280;36308;46.312;25.288;2023-03-23T14:12:00;95960.19;;;22.01;25.49
50394;BME280;36308;46.312;25.288;2023-03-23T14:14:51;95962.84;;;21.89;25.62
50394;BME280;36308;46.312;25.288;2023-03-23T14:17:26;95954.56;;;21.76;25.78
50394;BME280;36308;46.312;25.288;2023-03-23T14:19:54;95952.03;;;21.71;26.29
50394;BME280;36308;46.312;25.288;2023-03-23T14:22:32;95951.56;;;21.69;25.50
50394;BME280;36308;46.312;25.288;2023-03-23T14:25:12;95941.63;;;21.65;25.78
50394;BME280;36308;46.312;25.288;2023-03-23T14:27:38;95936.78;;;21.62;26.03
50394;BME280;36308;46.312;25.288;2023-03-23T14:30:12;95942.94;;;21.58;26.22
50394;BME280;36308;46.312;25.288;2023-03-23T14:32:38;95941.06;;;21.50;26.59
50394;BME280;36308;46.312;25.288;2023-03-23T14:35:12;95946.06;;;21.39;26.71
50394;BME280;36308;46.312;25.288;2023-03-23T14:37:39;95938.88;;;21.26;27.01
50394;BME280;36308;46.312;25.288;2023-03-23T14:40:05;95940.38;;;21.15;27.02
50394;BME280;36308;46.312;25.288;2023-03-23T14:42:34;95938.00;;;21.05;27.44
50394;BME280;36308;46.312;25.288;2023-03-23T14:45:02;95937.22;;;20.95;27.65
50394;BME280;36308;46.312;25.288;2023-03-23T14:47:35;95930.22;;;20.86;28.03
50394;BME280;36308;46.312;25.288;2023-03-23T14:50:03;95942.91;;;20.82;28.15